Terminal Aerodrome Forecast
Issued by NWS

Home | Current Version | Previous Version | Text Only | Print | Product List | Glossary On
Versions: 1 2 3 4 5 6 7 8 9 10 11 12 13 14 15
000
FTUS43 KAPX 292320
TAFMBL
TAF
KMBL 292320Z 3000/3024 22015G25KT 5SM -SN BR SCT012 OVC022
      TEMPO 3000/3003 2SM -SN BLSN BKN012
     FM300600 30014G23KT P6SM VCSH OVC025
     FM301200 29012G21KT P6SM BKN035
      AMD LTD TO CLD VIS AND WIND=

USA.gov is the U.S. government's official web portal to all federal, state and local government web resources and services.